Time;durP1;ratioP1;P1;durP2;ratioP2;P2;SDS_P1;SDS_P2;PMS_P1;PMS_P2;Temp;Humidity;BMP_temperature;BMP_pressure;BME280_temperature;BME280_humidity;BME280_pressure;Samples;Min_cycle;Max_cycle;Signal;HPM_P1;HPM_P2
2022/02/24 00:00:35;;;;;;;4.37;2.33;;;9.20;99.90;;;;;;5057433;28;20452;-79
2022/02/24 00:03:01;;;;;;;9.60;2.83;;;9.10;99.90;;;;;;5057734;28;20227;-80
2022/02/24 00:05:27;;;;;;;6.77;3.37;;;9.10;99.90;;;;;;5058362;28;20414;-80
2022/02/24 00:07:52;;;;;;;9.10;3.33;;;9.00;99.90;;;;;;5041190;28;20461;-80
2022/02/24 00:10:20;;;;;;;6.23;2.70;;;9.00;99.90;;;;;;5040944;28;20186;-80
2022/02/24 00:12:46;;;;;;;5.53;2.60;;;9.00;99.90;;;;;;5040497;28;21221;-80
2022/02/24 00:15:12;;;;;;;6.00;2.33;;;9.10;99.90;;;;;;5059505;28;20486;-80
2022/02/24 00:17:38;;;;;;;4.27;2.20;;;9.10;99.90;;;;;;5058629;28;20179;-80
2022/02/24 00:20:06;;;;;;;6.63;2.60;;;9.10;99.90;;;;;;5058921;28;20422;-80
2022/02/24 00:22:32;;;;;;;6.97;2.83;;;9.10;99.90;;;;;;5059551;28;20442;-80
2022/02/24 00:24:58;;;;;;;5.37;2.67;;;9.20;99.90;;;;;;5058756;28;20835;-81
2022/02/24 00:27:23;;;;;;;6.83;3.27;;;9.20;99.90;;;;;;5041125;28;20911;-80
2022/02/24 00:29:49;;;;;;;3.67;2.40;;;9.10;99.90;;;;;;5058638;28;20450;-80
2022/02/24 00:32:14;;;;;;;8.03;2.60;;;9.20;99.90;;;;;;5058129;28;20230;-80
2022/02/24 00:34:40;;;;;;;4.87;3.00;;;9.20;99.90;;;;;;5058726;28;20330;-80
2022/02/24 00:37:06;;;;;;;4.40;2.53;;;9.20;99.90;;;;;;5058122;28;20179;-79
2022/02/24 00:39:31;;;;;;;5.37;2.63;;;9.20;99.90;;;;;;5040135;28;20638;-79
2022/02/24 00:41:57;;;;;;;6.73;2.53;;;9.20;99.90;;;;;;5039183;28;20294;-80
2022/02/24 00:44:23;;;;;;;4.93;3.23;;;9.20;99.90;;;;;;5057803;28;20705;-79
2022/02/24 00:46:49;;;;;;;6.07;3.20;;;9.20;99.90;;;;;;5056995;28;20197;-79
2022/02/24 00:49:15;;;;;;;8.40;2.40;;;9.30;99.90;;;;;;5058084;28;20413;-80
2022/02/24 00:51:41;;;;;;;4.53;2.60;;;9.30;99.90;;;;;;5056993;28;20180;-79
2022/02/24 00:54:07;;;;;;;6.03;2.97;;;9.20;99.90;;;;;;5039925;28;20430;-79
2022/02/24 00:56:32;;;;;;;7.60;2.80;;;9.20;99.90;;;;;;5057102;28;21046;-79
2022/02/24 00:58:58;;;;;;;11.87;3.27;;;9.20;99.90;;;;;;5060254;28;20259;-79
2022/02/24 01:01:24;;;;;;;5.60;2.17;;;9.20;99.90;;;;;;5061235;28;20183;-80
2022/02/24 01:03:50;;;;;;;7.20;2.90;;;9.20;99.90;;;;;;5062130;28;20219;-79
2022/02/24 01:06:15;;;;;;;7.13;2.77;;;9.30;99.90;;;;;;5060683;28;20183;-79
2022/02/24 01:08:41;;;;;;;5.57;2.50;;;9.20;99.90;;;;;;5043676;28;20792;-80
2022/02/24 01:11:07;;;;;;;3.90;2.10;;;9.30;99.90;;;;;;5061571;28;20183;-80
2022/02/24 01:13:32;;;;;;;4.07;2.20;;;9.30;99.90;;;;;;5042443;28;20239;-80
2022/02/24 01:15:58;;;;;;;3.63;2.67;;;9.20;99.90;;;;;;5061426;28;20438;-80
2022/02/24 01:18:26;;;;;;;9.27;2.67;;;9.30;99.90;;;;;;5042350;28;20180;-79
2022/02/24 01:20:52;;;;;;;6.17;3.60;;;9.20;99.90;;;;;;5060804;28;20175;-80
2022/02/24 01:23:18;;;;;;;7.77;3.50;;;9.20;99.90;;;;;;5059468;28;20441;-80
2022/02/24 01:25:43;;;;;;;3.77;2.43;;;9.20;99.90;;;;;;5056184;28;20176;-79
2022/02/24 01:28:09;;;;;;;6.00;3.00;;;9.20;99.90;;;;;;5037574;28;20247;-80
2022/02/24 01:30:34;;;;;;;6.03;3.20;;;9.20;99.90;;;;;;5055886;28;20176;-79
2022/02/24 01:33:00;;;;;;;6.17;2.63;;;9.20;99.90;;;;;;5055649;28;20196;-79
2022/02/24 01:35:25;;;;;;;3.70;2.27;;;9.20;99.90;;;;;;5037769;28;20234;-79
2022/02/24 01:37:51;;;;;;;4.90;2.47;;;9.20;99.90;;;;;;5055059;28;20197;-79
2022/02/24 01:40:17;;;;;;;5.80;2.60;;;9.20;99.90;;;;;;5055686;28;20190;-79
2022/02/24 01:42:43;;;;;;;4.30;2.97;;;9.20;99.90;;;;;;5055487;28;20689;-79
2022/02/24 01:45:10;;;;;;;8.63;3.17;;;9.20;99.90;;;;;;5055403;28;20789;-79
2022/02/24 01:47:35;;;;;;;7.17;2.73;;;9.20;99.90;;;;;;5055113;28;20515;-79
2022/02/24 01:50:02;;;;;;;6.57;2.57;;;9.30;99.90;;;;;;5055327;28;20421;-79
2022/02/24 01:52:29;;;;;;;11.50;3.10;;;9.30;99.90;;;;;;5037425;28;20286;-79
2022/02/24 01:54:54;;;;;;;4.63;2.27;;;9.30;99.90;;;;;;5054997;28;20499;-79
2022/02/24 01:57:21;;;;;;;7.33;2.90;;;9.20;99.90;;;;;;5055041;28;20504;-79
2022/02/24 01:59:47;;;;;;;6.13;3.53;;;9.20;99.90;;;;;;5055107;28;20179;-79
2022/02/24 02:02:16;;;;;;;6.73;2.83;;;9.20;99.90;;;;;;5037254;28;20977;-79
2022/02/24 02:04:43;;;;;;;6.00;4.40;;;9.20;99.90;;;;;;5055012;28;20927;-80
2022/02/24 02:07:09;;;;;;;3.90;2.77;;;9.20;99.90;;;;;;5054838;28;20454;-79
2022/02/24 02:09:35;;;;;;;6.07;2.97;;;9.20;99.90;;;;;;5054602;28;20413;-79
2022/02/24 02:12:00;;;;;;;5.77;2.80;;;9.20;99.90;;;;;;5054986;28;20434;-80
2022/02/24 02:14:26;;;;;;;7.93;3.00;;;9.20;99.90;;;;;;5036991;28;20430;-79
2022/02/24 02:16:52;;;;;;;5.67;3.23;;;9.20;99.90;;;;;;5054319;28;20180;-80
2022/02/24 02:19:19;;;;;;;7.33;3.20;;;9.20;99.90;;;;;;5054939;28;20267;-79
2022/02/24 02:21:45;;;;;;;4.30;2.90;;;9.20;99.90;;;;;;5054721;28;20422;-79
2022/02/24 02:24:12;;;;;;;6.87;3.50;;;9.20;99.90;;;;;;5054653;28;20484;-79
2022/02/24 02:26:38;;;;;;;6.33;2.90;;;9.20;99.90;;;;;;5054095;28;20454;-79
2022/02/24 02:29:08;;;;;;;6.10;4.03;;;9.20;99.90;;;;;;5054763;28;20929;-79
2022/02/24 02:31:33;;;;;;;5.90;3.00;;;9.20;99.90;;;;;;5036708;28;20557;-79
2022/02/24 02:34:07;;;;;;;8.77;3.53;;;9.20;99.90;;;;;;5054535;28;20414;-79
2022/02/24 02:36:34;;;;;;;5.50;3.10;;;9.20;99.90;;;;;;5054141;28;20175;-79
2022/02/24 02:39:01;;;;;;;7.83;3.00;;;9.20;99.90;;;;;;5054453;28;20471;-80
2022/02/24 02:41:33;;;;;;;8.20;3.77;;;9.20;99.90;;;;;;5054347;28;20809;-79
2022/02/24 02:44:00;;;;;;;5.60;3.37;;;9.20;99.90;;;;;;5054158;28;20439;-79
2022/02/24 02:46:26;;;;;;;8.40;4.13;;;9.20;99.90;;;;;;5053914;28;20457;-79
2022/02/24 02:48:52;;;;;;;9.93;2.97;;;9.20;99.90;;;;;;5054273;28;20898;-79
2022/02/24 02:51:18;;;;;;;10.73;4.67;;;9.20;99.90;;;;;;5054232;28;20493;-80
2022/02/24 02:53:45;;;;;;;4.70;2.50;;;9.20;99.90;;;;;;5053837;28;20203;-80
2022/02/24 02:56:11;;;;;;;7.77;2.93;;;9.20;99.90;;;;;;5053970;28;20285;-79
2022/02/24 02:58:36;;;;;;;8.00;3.30;;;9.20;99.90;;;;;;5036021;28;21159;-79
2022/02/24 03:01:02;;;;;;;4.77;3.30;;;9.20;99.90;;;;;;5053742;28;20437;-78
2022/02/24 03:03:28;;;;;;;7.53;3.53;;;9.20;99.90;;;;;;5053890;28;20273;-79
2022/02/24 03:05:54;;;;;;;4.10;2.63;;;9.30;99.90;;;;;;5053913;28;20422;-79
2022/02/24 03:08:20;;;;;;;4.70;2.67;;;9.30;99.90;;;;;;5053552;28;20674;-79
2022/02/24 03:10:46;;;;;;;4.33;2.73;;;9.40;99.90;;;;;;5053749;28;20410;-79
2022/02/24 03:13:13;;;;;;;5.07;3.30;;;9.40;99.90;;;;;;5053551;28;20440;-79
2022/02/24 03:15:39;;;;;;;10.27;2.90;;;9.40;99.90;;;;;;5053450;28;20444;-79
2022/02/24 03:18:05;;;;;;;4.33;2.83;;;9.40;99.90;;;;;;5053364;28;20835;-79
2022/02/24 03:20:32;;;;;;;6.00;2.87;;;9.40;99.90;;;;;;5052847;28;20454;-79
2022/02/24 03:23:00;;;;;;;5.33;2.70;;;9.40;99.90;;;;;;5053562;28;20438;-79
2022/02/24 03:25:26;;;;;;;8.07;3.07;;;9.40;99.90;;;;;;5053288;28;20431;-79
2022/02/24 03:27:52;;;;;;;5.90;2.60;;;9.30;99.90;;;;;;5053212;28;20559;-79
2022/02/24 03:30:18;;;;;;;6.23;3.20;;;9.30;99.90;;;;;;5053419;28;20453;-79
2022/02/24 03:32:45;;;;;;;7.63;3.27;;;9.30;99.90;;;;;;5053516;28;20466;-80
2022/02/24 03:35:11;;;;;;;7.03;3.03;;;9.30;99.90;;;;;;5052992;28;20560;-79
2022/02/24 03:37:36;;;;;;;5.40;2.83;;;9.30;99.90;;;;;;5059211;28;20418;-80
2022/02/24 03:40:03;;;;;;;5.43;2.57;;;9.30;99.90;;;;;;5062767;28;20691;-81
2022/02/24 03:42:29;;;;;;;6.60;3.10;;;9.30;99.90;;;;;;5062977;28;20210;-81
2022/02/24 03:44:55;;;;;;;5.30;3.03;;;9.40;99.90;;;;;;5062822;28;20818;-81
2022/02/24 03:47:24;;;;;;;5.90;3.20;;;9.40;99.90;;;;;;5062126;28;20666;-81
2022/02/24 03:49:50;;;;;;;7.50;2.93;;;9.40;99.90;;;;;;5063278;28;20406;-81
2022/02/24 03:52:16;;;;;;;5.33;2.63;;;9.40;99.90;;;;;;5061704;28;20709;-81
2022/02/24 03:54:43;;;;;;;7.70;2.93;;;9.40;99.90;;;;;;5062594;28;20497;-81
2022/02/24 03:57:08;;;;;;;7.63;3.03;;;9.30;99.90;;;;;;5061621;28;20468;-80
2022/02/24 03:59:34;;;;;;;4.27;2.57;;;9.40;99.90;;;;;;5061254;28;20418;-80
2022/02/24 04:02:00;;;;;;;7.17;3.17;;;9.40;99.90;;;;;;5061865;28;20676;-81
2022/02/24 04:04:25;;;;;;;3.90;2.70;;;9.30;99.90;;;;;;5061932;28;20179;-80
2022/02/24 04:06:51;;;;;;;6.13;2.70;;;9.40;99.90;;;;;;5060551;28;20204;-80
2022/02/24 04:09:18;;;;;;;5.10;2.70;;;9.30;99.90;;;;;;5061083;28;20229;-81
2022/02/24 04:11:43;;;;;;;5.13;2.60;;;9.40;99.90;;;;;;5061155;28;20418;-81
2022/02/24 04:14:09;;;;;;;6.33;2.30;;;9.30;99.90;;;;;;5060696;28;20591;-81
2022/02/24 04:16:34;;;;;;;4.97;3.20;;;9.30;99.90;;;;;;5056700;28;20190;-79
2022/02/24 04:19:00;;;;;;;8.00;2.80;;;9.30;99.90;;;;;;5052564;28;20191;-79
2022/02/24 04:21:26;;;;;;;5.17;2.70;;;9.30;99.90;;;;;;5052197;28;20209;-79
2022/02/24 04:23:53;;;;;;;3.57;2.07;;;9.20;99.90;;;;;;5052236;28;20191;-78
2022/02/24 04:26:18;;;;;;;5.67;2.43;;;9.20;99.90;;;;;;5052100;28;20187;-79
2022/02/24 04:28:44;;;;;;;7.03;3.00;;;9.10;99.90;;;;;;5052048;28;20418;-79
2022/02/24 04:31:10;;;;;;;4.63;2.33;;;9.10;99.90;;;;;;5052153;28;20425;-79
2022/02/24 04:33:35;;;;;;;5.43;2.13;;;9.10;99.90;;;;;;5051891;28;20222;-78
2022/02/24 04:36:01;;;;;;;8.50;2.60;;;9.10;99.90;;;;;;5034326;28;20203;-80
2022/02/24 04:38:26;;;;;;;8.17;2.80;;;9.10;99.90;;;;;;5051664;28;20183;-79
2022/02/24 04:40:52;;;;;;;4.30;2.47;;;9.10;99.90;;;;;;5052025;28;20187;-80
2022/02/24 04:43:17;;;;;;;7.77;2.83;;;9.10;99.90;;;;;;5033915;28;20671;-79
2022/02/24 04:45:43;;;;;;;10.40;2.20;;;9.10;99.90;;;;;;5051857;28;20180;-79
2022/02/24 04:48:10;;;;;;;7.10;3.10;;;9.10;99.90;;;;;;5051568;28;20811;-80
2022/02/24 04:50:36;;;;;;;7.27;2.50;;;9.10;99.90;;;;;;5057605;28;20209;-80
2022/02/24 04:53:02;;;;;;;5.47;2.40;;;9.10;99.90;;;;;;5059547;28;20437;-79
2022/02/24 04:55:27;;;;;;;4.20;2.60;;;9.10;99.90;;;;;;5058691;28;20180;-81
2022/02/24 04:57:53;;;;;;;4.83;2.47;;;9.10;99.90;;;;;;5059815;28;20183;-81
2022/02/24 05:00:18;;;;;;;4.40;2.37;;;9.10;99.90;;;;;;5059114;28;20183;-81
2022/02/24 05:02:44;;;;;;;3.80;2.20;;;9.10;99.90;;;;;;5058847;28;20217;-79
2022/02/24 05:05:10;;;;;;;4.70;2.40;;;9.20;99.90;;;;;;5058661;28;20188;-81
2022/02/24 05:07:36;;;;;;;4.00;2.47;;;9.20;99.90;;;;;;5058330;28;20207;-81
2022/02/24 05:10:03;;;;;;;5.13;2.50;;;9.20;99.90;;;;;;5059118;28;20419;-81
2022/02/24 05:12:28;;;;;;;7.73;3.13;;;9.20;99.90;;;;;;5058727;28;20203;-80
2022/02/24 05:14:54;;;;;;;9.87;3.00;;;9.30;99.90;;;;;;5058978;28;20440;-81
2022/02/24 05:17:20;;;;;;;5.93;1.90;;;9.30;99.90;;;;;;5058532;28;20263;-80
2022/02/24 05:19:45;;;;;;;5.50;1.83;;;9.40;99.90;;;;;;5058481;28;20195;-81
2022/02/24 05:22:11;;;;;;;4.57;2.03;;;9.50;99.90;;;;;;5058183;28;20287;-79
2022/02/24 05:24:36;;;;;;;5.67;2.53;;;9.50;99.90;;;;;;5058076;28;20195;-81
2022/02/24 05:27:02;;;;;;;4.37;1.70;;;9.50;99.90;;;;;;5057786;28;20685;-80
2022/02/24 05:29:28;;;;;;;6.70;2.73;;;9.60;99.90;;;;;;5040322;28;20559;-80
2022/02/24 05:31:53;;;;;;;9.30;2.60;;;9.50;99.90;;;;;;5058126;28;20195;-80
2022/02/24 05:34:19;;;;;;;6.63;3.13;;;9.50;99.90;;;;;;5058660;28;20179;-80
2022/02/24 05:36:44;;;;;;;5.47;2.30;;;9.50;99.90;;;;;;5058007;28;20184;-81
2022/02/24 05:39:11;;;;;;;5.03;2.63;;;9.40;99.90;;;;;;5058514;28;20195;-81
2022/02/24 05:41:36;;;;;;;5.77;2.63;;;9.40;99.90;;;;;;5057578;28;20259;-80
2022/02/24 05:44:02;;;;;;;4.20;2.40;;;9.40;99.90;;;;;;5041592;28;20462;-80
2022/02/24 05:46:28;;;;;;;8.20;2.87;;;9.40;99.90;;;;;;5060377;28;20479;-81
2022/02/24 05:48:53;;;;;;;5.50;2.07;;;9.40;99.90;;;;;;5061956;28;20476;-80
2022/02/24 05:51:19;;;;;;;7.83;2.40;;;9.30;99.90;;;;;;5061231;28;20180;-81
2022/02/24 05:53:45;;;;;;;4.50;2.10;;;9.40;99.90;;;;;;5061376;28;20230;-80
2022/02/24 05:56:10;;;;;;;4.80;2.30;;;9.40;99.90;;;;;;5061158;28;20176;-80
2022/02/24 05:58:36;;;;;;;5.90;3.10;;;9.40;99.90;;;;;;5060978;28;20191;-80
2022/02/24 06:01:01;;;;;;;6.93;2.47;;;9.30;99.90;;;;;;5061265;28;20215;-79
2022/02/24 06:03:27;;;;;;;5.60;2.77;;;9.30;99.90;;;;;;5076624;23;20219;-82
2022/02/24 06:05:56;;;;;;;5.47;2.60;;;9.30;99.90;;;;;;5071943;28;20178;-83
2022/02/24 06:08:22;;;;;;;5.70;3.23;;;9.30;99.90;;;;;;5073284;28;20218;-83
2022/02/24 06:10:47;;;;;;;5.73;2.60;;;9.30;99.90;;;;;;5073688;28;20428;-83
2022/02/24 06:13:13;;;;;;;4.77;2.13;;;9.40;99.90;;;;;;5074643;28;20413;-82
2022/02/24 06:15:39;;;;;;;5.10;2.33;;;9.30;99.90;;;;;;5073381;28;20308;-82
2022/02/24 06:18:08;;;;;;;5.13;2.17;;;9.40;99.90;;;;;;5073231;28;20245;-82
2022/02/24 06:20:34;;;;;;;5.30;2.40;;;9.40;99.90;;;;;;5073587;28;20266;-82
2022/02/24 06:23:00;;;;;;;5.70;2.10;;;9.50;99.90;;;;;;5074671;28;20718;-83
2022/02/24 06:25:25;;;;;;;4.40;2.00;;;9.50;99.90;;;;;;5073285;28;20214;-83
2022/02/24 06:27:51;;;;;;;6.43;2.03;;;9.50;99.90;;;;;;5073035;28;20577;-83
2022/02/24 06:30:17;;;;;;;5.50;3.00;;;9.50;99.90;;;;;;5074480;28;20179;-83
2022/02/24 06:32:42;;;;;;;10.20;2.83;;;9.40;99.90;;;;;;5073254;28;20221;-83
2022/02/24 06:35:09;;;;;;;6.10;2.80;;;9.50;99.90;;;;;;5074151;28;20198;-83
2022/02/24 06:37:35;;;;;;;7.07;2.83;;;9.40;99.90;;;;;;5072754;28;20676;-83
2022/02/24 06:40:01;;;;;;;4.00;2.23;;;9.40;99.90;;;;;;5074189;28;20421;-83
2022/02/24 06:42:27;;;;;;;5.90;2.40;;;9.40;99.90;;;;;;5073004;28;20765;-84
2022/02/24 06:44:52;;;;;;;6.23;3.10;;;9.40;99.90;;;;;;5073389;28;20226;-83
2022/02/24 06:47:18;;;;;;;4.37;2.33;;;9.40;99.90;;;;;;5073096;28;20500;-83
2022/02/24 06:49:44;;;;;;;5.03;2.77;;;9.40;99.90;;;;;;5089802;28;20175;-83
2022/02/24 06:52:10;;;;;;;6.33;2.67;;;9.40;99.90;;;;;;5073197;28;20209;-83
2022/02/24 06:54:36;;;;;;;5.30;2.40;;;9.40;99.90;;;;;;5072864;28;20235;-83
2022/02/24 06:57:06;;;;;;;6.13;2.60;;;9.50;99.90;;;;;;5071413;28;20461;-83
2022/02/24 06:59:33;;;;;;;5.10;3.10;;;9.50;99.90;;;;;;5072795;28;20171;-82
2022/02/24 07:01:59;;;;;;;4.60;2.33;;;9.60;99.90;;;;;;5072733;28;20451;-83
2022/02/24 07:04:24;;;;;;;7.13;2.67;;;9.60;99.90;;;;;;5073889;28;20460;-82
2022/02/24 07:06:50;;;;;;;3.80;2.50;;;9.70;99.90;;;;;;5072115;28;20547;-83
2022/02/24 07:09:16;;;;;;;4.17;2.40;;;9.80;99.90;;;;;;5089534;28;20210;-83
2022/02/24 07:11:41;;;;;;;6.80;2.47;;;9.70;99.90;;;;;;5073783;28;20646;-82
2022/02/24 07:14:07;;;;;;;5.63;2.60;;;9.70;99.90;;;;;;5072588;28;20202;-82
2022/02/24 07:16:33;;;;;;;8.33;2.90;;;9.80;99.90;;;;;;5072092;28;20220;-84
2022/02/24 07:19:00;;;;;;;3.50;2.40;;;9.80;99.90;;;;;;5074114;28;20171;-82
2022/02/24 07:21:26;;;;;;;5.53;2.63;;;9.90;99.90;;;;;;5072418;28;20784;-84
2022/02/24 07:23:52;;;;;;;5.70;2.70;;;9.90;99.90;;;;;;5072191;28;20444;-83
2022/02/24 07:26:17;;;;;;;5.27;2.27;;;10.00;99.90;;;;;;5072144;28;20673;-83
2022/02/24 07:28:43;;;;;;;5.80;2.33;;;10.00;99.90;;;;;;5072077;28;20186;-83
2022/02/24 07:31:10;;;;;;;4.90;2.13;;;10.00;99.90;;;;;;5088961;28;20198;-82
2022/02/24 07:33:35;;;;;;;4.70;2.40;;;10.00;99.90;;;;;;5073181;28;20453;-83
2022/02/24 07:36:01;;;;;;;6.20;2.40;;;10.10;99.90;;;;;;5072088;28;20847;-83
2022/02/24 07:38:26;;;;;;;6.40;2.60;;;10.00;99.90;;;;;;5071695;28;20175;-83
2022/02/24 07:40:52;;;;;;;4.73;3.03;;;10.10;99.90;;;;;;5072122;28;20182;-83
2022/02/24 07:43:17;;;;;;;5.07;2.33;;;10.00;99.90;;;;;;5073294;28;20228;-83
2022/02/24 07:45:43;;;;;;;6.60;2.50;;;10.10;99.90;;;;;;5071850;28;20189;-84
2022/02/24 07:48:09;;;;;;;6.00;4.00;;;10.10;99.90;;;;;;5071581;28;20551;-83
2022/02/24 07:50:34;;;;;;;5.97;2.50;;;10.20;99.90;;;;;;5071786;28;20178;-83
2022/02/24 07:53:01;;;;;;;2.90;1.90;;;10.20;99.90;;;;;;5073341;28;20198;-84
2022/02/24 07:55:28;;;;;;;6.90;2.30;;;10.30;99.90;;;;;;5088319;28;20277;-83
2022/02/24 07:57:54;;;;;;;4.20;2.20;;;10.20;99.90;;;;;;5071469;28;20447;-84
2022/02/24 08:00:19;;;;;;;4.50;2.70;;;10.20;99.90;;;;;;5071353;28;20787;-83
2022/02/24 08:02:45;;;;;;;5.93;2.20;;;10.20;99.90;;;;;;5071570;28;20507;-83
2022/02/24 08:05:11;;;;;;;4.40;2.10;;;10.20;99.90;;;;;;5071392;28;20222;-84
2022/02/24 08:07:37;;;;;;;3.47;1.87;;;10.10;99.90;;;;;;5070743;28;20622;-83
2022/02/24 08:10:07;;;;;;;7.10;2.07;;;10.20;99.90;;;;;;5071269;28;20500;-83
2022/02/24 08:12:39;;;;;;;5.27;2.70;;;10.30;99.90;;;;;;5071469;28;20781;-83
2022/02/24 08:15:09;;;;;;;5.20;2.20;;;10.30;99.90;;;;;;5071168;28;20508;-83
2022/02/24 08:17:35;;;;;;;5.50;2.13;;;10.30;99.90;;;;;;5072298;28;20466;-83
2022/02/24 08:20:01;;;;;;;6.20;2.20;;;10.40;99.90;;;;;;5071435;28;20559;-83
2022/02/24 08:22:26;;;;;;;8.80;2.27;;;10.40;99.90;;;;;;5072321;28;20182;-83
2022/02/24 08:24:52;;;;;;;6.97;2.83;;;10.50;99.90;;;;;;5071151;28;20445;-83
2022/02/24 08:27:18;;;;;;;6.13;2.13;;;10.40;99.90;;;;;;5071965;28;20670;-83
2022/02/24 08:29:44;;;;;;;6.20;2.27;;;10.50;99.90;;;;;;5072310;28;20733;-83
2022/02/24 08:32:09;;;;;;;5.13;2.10;;;10.50;99.90;;;;;;5072431;28;20176;-84
2022/02/24 08:34:35;;;;;;;10.60;2.80;;;10.50;99.90;;;;;;5071378;28;20198;-85
2022/02/24 08:37:00;;;;;;;6.60;2.40;;;10.40;99.90;;;;;;5070820;28;20620;-85
2022/02/24 08:39:26;;;;;;;5.83;3.30;;;10.50;99.90;;;;;;5072368;28;20171;-85
2022/02/24 08:41:52;;;;;;;8.80;2.67;;;10.50;99.90;;;;;;5070768;28;20179;-85
2022/02/24 08:44:18;;;;;;;7.00;2.60;;;10.60;99.90;;;;;;5072173;28;20229;-85
2022/02/24 08:46:44;;;;;;;7.90;3.80;;;10.60;99.90;;;;;;5070562;28;20237;-85
2022/02/24 08:49:11;;;;;;;8.90;4.57;;;10.60;99.90;;;;;;5070892;28;20414;-85
2022/02/24 08:51:36;;;;;;;5.43;3.10;;;10.60;99.90;;;;;;5070908;28;20420;-85
2022/02/24 08:54:02;;;;;;;7.30;3.27;;;10.50;99.90;;;;;;5072029;28;20433;-84
2022/02/24 08:56:27;;;;;;;5.90;2.70;;;10.50;99.90;;;;;;5070632;28;20183;-85
2022/02/24 08:58:53;;;;;;;5.67;1.87;;;10.40;99.90;;;;;;5070833;28;20175;-85
2022/02/24 09:01:18;;;;;;;3.70;1.90;;;10.40;99.90;;;;;;5088373;28;20181;-85
2022/02/24 09:03:44;;;;;;;9.87;3.03;;;10.40;99.90;;;;;;5070348;28;20220;-85
2022/02/24 09:06:09;;;;;;;8.83;2.73;;;10.40;99.90;;;;;;5070720;28;20202;-85
2022/02/24 09:08:35;;;;;;;6.10;2.03;;;10.40;99.90;;;;;;5070365;28;20206;-85
2022/02/24 09:11:01;;;;;;;4.87;2.37;;;10.50;99.90;;;;;;5070903;28;20179;-85
2022/02/24 09:13:26;;;;;;;3.97;1.93;;;10.60;99.90;;;;;;5070578;28;20274;-85
2022/02/24 09:15:52;;;;;;;3.43;1.77;;;10.60;99.90;;;;;;5071761;28;20171;-85
2022/02/24 09:18:17;;;;;;;4.10;2.03;;;10.70;99.90;;;;;;5070403;28;20212;-85
2022/02/24 09:20:43;;;;;;;7.20;2.17;;;10.80;99.90;;;;;;5074352;28;20772;-84
2022/02/24 09:23:09;;;;;;;4.03;2.27;;;10.80;99.90;;;;;;5075179;28;20182;-86
2022/02/24 09:25:34;;;;;;;4.97;2.47;;;10.80;99.90;;;;;;5069776;28;20209;-86
2022/02/24 09:28:00;;;;;;;5.70;2.87;;;10.80;99.90;;;;;;5076910;28;20329;-85
2022/02/24 09:30:26;;;;;;;4.70;2.27;;;10.80;99.90;;;;;;5071458;28;20186;-85
2022/02/24 09:32:55;;;;;;;5.17;2.40;;;10.80;99.90;;;;;;5072197;28;20239;-84
2022/02/24 09:35:21;;;;;;;6.03;2.57;;;10.60;99.90;;;;;;5072077;28;20222;-85
2022/02/24 09:37:47;;;;;;;5.67;3.43;;;10.60;99.90;;;;;;5072735;28;20426;-83
2022/02/24 09:40:14;;;;;;;7.70;3.10;;;10.60;99.90;;;;;;5065642;28;20857;-84
2022/02/24 09:42:42;;;;;;;6.17;2.60;;;10.40;99.90;;;;;;5077343;28;20468;-83
2022/02/24 09:45:08;;;;;;;5.57;2.80;;;10.40;99.90;;;;;;5074780;28;20872;-83
2022/02/24 09:47:37;;;;;;;4.97;2.97;;;10.40;99.90;;;;;;5073626;28;20461;-83
2022/02/24 09:50:04;;;;;;;5.60;2.60;;;10.20;99.90;;;;;;5073872;28;20418;-83
2022/02/24 09:52:30;;;;;;;6.03;2.60;;;10.20;99.90;;;;;;5073731;28;20417;-84
2022/02/24 09:54:56;;;;;;;4.83;2.40;;;10.20;99.90;;;;;;5073866;28;20432;-83
2022/02/24 09:57:21;;;;;;;8.30;2.60;;;10.10;99.90;;;;;;5073556;28;20320;-83
2022/02/24 09:59:47;;;;;;;4.70;2.63;;;10.10;99.90;;;;;;5075173;28;20179;-84
2022/02/24 10:02:15;;;;;;;5.00;2.47;;;10.10;99.90;;;;;;5073768;28;20191;-84
2022/02/24 10:05:09;;;;;;;7.10;3.17;;;10.10;99.90;;;;;;5073515;28;20232;-83
2022/02/24 10:07:36;;;;;;;4.77;2.30;;;10.10;99.90;;;;;;5073218;28;20539;-84
2022/02/24 10:10:31;;;;;;;4.50;2.83;;;10.10;99.90;;;;;;5073771;28;20512;-84
2022/02/24 10:13:15;;;;;;;5.87;2.50;;;10.10;99.90;;;;;;5073649;28;20841;-83
2022/02/24 10:15:44;;;;;;;4.20;2.53;;;10.10;99.90;;;;;;5073374;28;20425;-84
2022/02/24 10:18:20;;;;;;;5.70;2.60;;;10.20;99.90;;;;;;5073166;28;20418;-84
2022/02/24 10:20:56;;;;;;;7.60;2.67;;;10.00;99.90;;;;;;5073451;28;20554;-84
2022/02/24 10:23:30;;;;;;;8.90;3.50;;;10.10;99.90;;;;;;5073375;28;20460;-83
2022/02/24 10:26:03;;;;;;;5.80;2.90;;;10.10;99.90;;;;;;5073269;28;20964;-84
2022/02/24 10:28:50;;;;;;;4.83;3.10;;;10.20;99.90;;;;;;5072916;28;20464;-84
2022/02/24 10:31:17;;;;;;;6.87;2.70;;;10.00;99.90;;;;;;5073119;28;20662;-84
2022/02/24 10:33:50;;;;;;;7.17;2.60;;;10.00;99.90;;;;;;5073241;28;20432;-84
2022/02/24 10:36:21;;;;;;;4.53;3.20;;;10.00;99.90;;;;;;5073864;28;20477;-82
2022/02/24 10:39:11;;;;;;;6.27;2.80;;;9.90;99.90;;;;;;5075939;28;20404;-83
2022/02/24 10:41:43;;;;;;;5.10;2.77;;;10.10;99.90;;;;;;5072961;28;20927;-83
2022/02/24 10:44:14;;;;;;;7.70;2.60;;;10.00;99.90;;;;;;5072840;28;20444;-84
2022/02/24 10:46:41;;;;;;;9.33;3.33;;;10.10;99.90;;;;;;5072396;28;20865;-84
2022/02/24 10:49:07;;;;;;;10.80;2.70;;;10.30;99.90;;;;;;5072867;28;20413;-84
2022/02/24 10:51:34;;;;;;;5.93;3.00;;;10.70;99.90;;;;;;5074264;28;20410;-84
2022/02/24 10:54:06;;;;;;;6.03;2.60;;;11.00;99.90;;;;;;5072634;28;20207;-84
2022/02/24 10:56:33;;;;;;;5.90;2.90;;;11.00;99.90;;;;;;5072452;28;20513;-84
2022/02/24 10:58:59;;;;;;;6.10;2.73;;;11.20;99.90;;;;;;5072617;28;20421;-83
2022/02/24 11:01:26;;;;;;;6.87;3.10;;;11.40;99.90;;;;;;5072597;28;20458;-83
2022/02/24 11:03:57;;;;;;;4.57;2.67;;;11.50;99.90;;;;;;5072342;28;20576;-84
2022/02/24 11:06:25;;;;;;;6.40;3.40;;;11.50;99.90;;;;;;5073664;28;20828;-83
2022/02/24 11:08:52;;;;;;;4.87;3.53;;;11.50;99.90;;;;;;5072272;28;20413;-84
2022/02/24 11:11:23;;;;;;;6.97;2.70;;;11.60;99.90;;;;;;5072506;28;20439;-84
2022/02/24 11:13:50;;;;;;;4.73;3.20;;;11.60;99.90;;;;;;5072217;28;20456;-84
2022/02/24 11:16:17;;;;;;;5.80;2.90;;;11.60;99.90;;;;;;5072219;28;20499;-83
2022/02/24 11:18:44;;;;;;;4.90;2.90;;;11.70;99.90;;;;;;5071933;28;20479;-84
2022/02/24 11:21:12;;;;;;;6.60;3.00;;;11.80;99.90;;;;;;5072069;28;20425;-84
2022/02/24 11:23:43;;;;;;;7.87;2.90;;;12.00;99.90;;;;;;5073200;28;20434;-83
2022/02/24 11:26:21;;;;;;;4.97;2.93;;;12.00;99.90;;;;;;5071899;28;20451;-83
2022/02/24 11:29:05;;;;;;;6.90;3.63;;;11.90;99.90;;;;;;5072024;28;20476;-84
2022/02/24 11:31:43;;;;;;;5.50;2.50;;;11.70;99.90;;;;;;5072042;28;20919;-83
2022/02/24 11:34:08;;;;;;;5.50;2.40;;;11.40;99.90;;;;;;5071870;28;20452;-83
2022/02/24 11:36:45;;;;;;;4.60;2.40;;;11.30;99.90;;;;;;5071548;28;20417;-83
2022/02/24 11:39:17;;;;;;;8.00;3.20;;;11.30;99.90;;;;;;5073108;28;20433;-83
2022/02/24 11:41:49;;;;;;;4.83;2.50;;;11.20;99.90;;;;;;5071230;28;20421;-84
2022/02/24 11:44:37;;;;;;;5.07;2.37;;;11.20;99.90;;;;;;5071738;28;20441;-83
2022/02/24 11:47:07;;;;;;;4.63;2.83;;;11.10;99.90;;;;;;5071300;28;20502;-84
2022/02/24 11:49:54;;;;;;;4.57;3.10;;;11.10;99.90;;;;;;5071641;28;20500;-83
2022/02/24 11:52:25;;;;;;;6.13;3.57;;;11.10;99.90;;;;;;5071559;28;20444;-83
2022/02/24 11:54:52;;;;;;;4.30;2.53;;;11.30;99.90;;;;;;5071183;28;20433;-83
2022/02/24 11:57:33;;;;;;;5.83;3.20;;;11.40;99.90;;;;;;5071259;28;20418;-84
2022/02/24 12:00:18;;;;;;;4.40;2.83;;;11.30;99.90;;;;;;5071347;28;20539;-84
2022/02/24 12:02:46;;;;;;;5.40;2.73;;;11.50;99.90;;;;;;5071642;28;20482;-84
2022/02/24 12:05:19;;;;;;;4.00;2.80;;;11.50;99.90;;;;;;5107951;22;20873;-77
2022/02/24 12:08:03;;;;;;;6.40;2.40;;;11.40;99.90;;;;;;5092599;28;20479;-77
2022/02/24 12:10:43;;;;;;;6.63;2.63;;;11.60;99.90;;;;;;5083082;28;20425;-78
2022/02/24 12:13:29;;;;;;;6.70;2.87;;;12.10;99.90;;;;;;5090992;28;20958;-77
2022/02/24 12:16:20;;;;;;;4.40;2.30;;;12.40;99.90;;;;;;5089202;28;20452;-77
2022/02/24 12:18:51;;;;;;;6.10;2.80;;;12.90;99.90;;;;;;5078866;28;20508;-76
2022/02/24 12:21:33;;;;;;;5.03;2.63;;;15.70;99.90;;;;;;5070584;28;20425;-76
2022/02/24 12:24:12;;;;;;;5.37;2.53;;;15.90;99.90;;;;;;5071523;28;20432;-77
2022/02/24 12:26:42;;;;;;;5.07;2.40;;;16.20;99.90;;;;;;5071833;28;20495;-78
2022/02/24 12:29:28;;;;;;;5.50;1.97;;;17.90;99.90;;;;;;5073356;28;20466;-77
2022/02/24 12:31:59;;;;;;;8.27;2.57;;;19.80;99.90;;;;;;5074629;28;20931;-77
2022/02/24 12:34:26;;;;;;;7.20;2.50;;;19.70;99.80;;;;;;5074165;28;20417;-77
2022/02/24 12:37:02;;;;;;;5.00;2.00;;;17.70;99.90;;;;;;5072839;28;20433;-77
2022/02/24 12:39:37;;;;;;;5.03;2.17;;;16.00;99.90;;;;;;5073995;28;20421;-77
2022/02/24 12:42:04;;;;;;;6.13;2.40;;;15.40;99.90;;;;;;5071739;28;20428;-77
2022/02/24 12:44:31;;;;;;;4.50;2.43;;;15.00;99.90;;;;;;5071837;28;20417;-77
2022/02/24 12:46:58;;;;;;;7.93;1.87;;;15.50;99.90;;;;;;5072277;28;20953;-77
2022/02/24 12:49:24;;;;;;;4.13;1.47;;;15.00;99.90;;;;;;5072799;28;20758;-77
2022/02/24 12:51:56;;;;;;;5.70;2.40;;;14.40;99.90;;;;;;5071249;28;20425;-77
2022/02/24 12:54:26;;;;;;;3.90;1.53;;;14.10;99.90;;;;;;5072162;28;20413;-78